sensor_id;sensor_type;location;lat;lon;timestamp;P1;durP1;ratioP1;P2;durP2;ratioP2
28086;SDS011;15392;48.912;8.380;2023-04-24T00:00:28;0.10;;;0.10;;
28086;SDS011;15392;48.912;8.380;2023-04-24T00:02:53;0.10;;;0.10;;
28086;SDS011;15392;48.912;8.380;2023-04-24T00:05:22;0.00;;;0.00;;
28086;SDS011;15392;48.912;8.380;2023-04-24T00:07:48;0.30;;;0.10;;
28086;SDS011;15392;48.912;8.380;2023-04-24T00:10:17;0.08;;;0.08;;
28086;SDS011;15392;48.912;8.380;2023-04-24T00:12:43;0.17;;;0.17;;
28086;SDS011;15392;48.912;8.380;2023-04-24T00:15:09;0.25;;;0.10;;
28086;SDS011;15392;48.912;8.380;2023-04-24T00:17:36;0.10;;;0.10;;
28086;SDS011;15392;48.912;8.380;2023-04-24T00:20:02;0.05;;;0.00;;
28086;SDS011;15392;48.912;8.380;2023-04-24T00:22:29;0.20;;;0.20;;
28086;SDS011;15392;48.912;8.380;2023-04-24T00:24:56;0.15;;;0.10;;
28086;SDS011;15392;48.912;8.380;2023-04-24T00:27:22;0.10;;;0.10;;
28086;SDS011;15392;48.912;8.380;2023-04-24T00:29:48;0.30;;;0.20;;
28086;SDS011;15392;48.912;8.380;2023-04-24T00:32:14;0.10;;;0.03;;
28086;SDS011;15392;48.912;8.380;2023-04-24T00:34:40;0.43;;;0.30;;
28086;SDS011;15392;48.912;8.380;2023-04-24T00:37:06;0.10;;;0.10;;
28086;SDS011;15392;48.912;8.380;2023-04-24T00:39:32;0.20;;;0.17;;
28086;SDS011;15392;48.912;8.380;2023-04-24T00:41:58;0.20;;;0.20;;
28086;SDS011;15392;48.912;8.380;2023-04-24T00:44:24;0.10;;;0.10;;
28086;SDS011;15392;48.912;8.380;2023-04-24T00:46:50;0.10;;;0.10;;
28086;SDS011;15392;48.912;8.380;2023-04-24T00:49:19;0.20;;;0.20;;
28086;SDS011;15392;48.912;8.380;2023-04-24T00:51:48;0.30;;;0.10;;
28086;SDS011;15392;48.912;8.380;2023-04-24T00:54:16;0.20;;;0.17;;
28086;SDS011;15392;48.912;8.380;2023-04-24T00:56:43;0.15;;;0.15;;
28086;SDS011;15392;48.912;8.380;2023-04-24T00:59:10;0.10;;;0.10;;
28086;SDS011;15392;48.912;8.380;2023-04-24T01:01:38;0.10;;;0.10;;
28086;SDS011;15392;48.912;8.380;2023-04-24T01:04:07;2.63;;;0.45;;
28086;SDS011;15392;48.912;8.380;2023-04-24T01:06:34;1.23;;;0.20;;
28086;SDS011;15392;48.912;8.380;2023-04-24T01:09:03;0.13;;;0.10;;
28086;SDS011;15392;48.912;8.380;2023-04-24T01:11:29;0.30;;;0.20;;
28086;SDS011;15392;48.912;8.380;2023-04-24T01:13:55;0.10;;;0.10;;
28086;SDS011;15392;48.912;8.380;2023-04-24T01:16:21;2.08;;;0.20;;
28086;SDS011;15392;48.912;8.380;2023-04-24T01:18:48;0.28;;;0.20;;
28086;SDS011;15392;48.912;8.380;2023-04-24T01:21:14;0.10;;;0.10;;
28086;SDS011;15392;48.912;8.380;2023-04-24T01:23:44;0.10;;;0.10;;
28086;SDS011;15392;48.912;8.380;2023-04-24T01:26:11;0.20;;;0.20;;
28086;SDS011;15392;48.912;8.380;2023-04-24T01:28:38;0.10;;;0.10;;
28086;SDS011;15392;48.912;8.380;2023-04-24T01:31:04;0.10;;;0.10;;
28086;SDS011;15392;48.912;8.380;2023-04-24T01:33:30;0.05;;;0.05;;
28086;SDS011;15392;48.912;8.380;2023-04-24T01:35:56;0.43;;;0.15;;
28086;SDS011;15392;48.912;8.380;2023-04-24T01:38:23;0.20;;;0.20;;
28086;SDS011;15392;48.912;8.380;2023-04-24T01:40:49;0.10;;;0.10;;
28086;SDS011;15392;48.912;8.380;2023-04-24T01:43:15;0.10;;;0.10;;
28086;SDS011;15392;48.912;8.380;2023-04-24T01:45:41;0.10;;;0.10;;
28086;SDS011;15392;48.912;8.380;2023-04-24T01:48:07;0.22;;;0.20;;
28086;SDS011;15392;48.912;8.380;2023-04-24T01:50:33;0.10;;;0.10;;
28086;SDS011;15392;48.912;8.380;2023-04-24T01:52:58;0.25;;;0.22;;
28086;SDS011;15392;48.912;8.380;2023-04-24T01:55:24;0.20;;;0.20;;
28086;SDS011;15392;48.912;8.380;2023-04-24T01:57:52;0.10;;;0.10;;
28086;SDS011;15392;48.912;8.380;2023-04-24T02:00:20;0.10;;;0.10;;
28086;SDS011;15392;48.912;8.380;2023-04-24T02:02:47;0.10;;;0.10;;
28086;SDS011;15392;48.912;8.380;2023-04-24T02:05:13;0.30;;;0.30;;
28086;SDS011;15392;48.912;8.380;2023-04-24T02:07:39;0.10;;;0.10;;
28086;SDS011;15392;48.912;8.380;2023-04-24T02:10:05;0.10;;;0.10;;
28086;SDS011;15392;48.912;8.380;2023-04-24T02:12:31;0.15;;;0.15;;
28086;SDS011;15392;48.912;8.380;2023-04-24T02:14:57;0.10;;;0.10;;
28086;SDS011;15392;48.912;8.380;2023-04-24T02:17:22;0.20;;;0.20;;
28086;SDS011;15392;48.912;8.380;2023-04-24T02:19:48;0.38;;;0.10;;
28086;SDS011;15392;48.912;8.380;2023-04-24T02:22:14;0.10;;;0.10;;
28086;SDS011;15392;48.912;8.380;2023-04-24T02:24:40;0.10;;;0.10;;
28086;SDS011;15392;48.912;8.380;2023-04-24T02:27:06;0.08;;;0.08;;
28086;SDS011;15392;48.912;8.380;2023-04-24T02:29:32;0.20;;;0.10;;
28086;SDS011;15392;48.912;8.380;2023-04-24T02:31:58;0.65;;;0.28;;
28086;SDS011;15392;48.912;8.380;2023-04-24T02:34:23;0.13;;;0.10;;
28086;SDS011;15392;48.912;8.380;2023-04-24T02:36:49;0.20;;;0.20;;
28086;SDS011;15392;48.912;8.380;2023-04-24T02:39:15;0.10;;;0.10;;
28086;SDS011;15392;48.912;8.380;2023-04-24T02:41:42;0.05;;;0.00;;
28086;SDS011;15392;48.912;8.380;2023-04-24T02:44:08;0.20;;;0.10;;
28086;SDS011;15392;48.912;8.380;2023-04-24T02:46:34;0.00;;;0.00;;
28086;SDS011;15392;48.912;8.380;2023-04-24T02:49:00;0.03;;;0.03;;
28086;SDS011;15392;48.912;8.380;2023-04-24T02:51:26;0.13;;;0.10;;
28086;SDS011;15392;48.912;8.380;2023-04-24T02:53:52;1.15;;;0.13;;
28086;SDS011;15392;48.912;8.380;2023-04-24T02:56:18;0.10;;;0.10;;
28086;SDS011;15392;48.912;8.380;2023-04-24T02:58:44;0.30;;;0.10;;
28086;SDS011;15392;48.912;8.380;2023-04-24T03:01:09;0.10;;;0.10;;
28086;SDS011;15392;48.912;8.380;2023-04-24T03:03:36;0.13;;;0.13;;
28086;SDS011;15392;48.912;8.380;2023-04-24T03:06:03;0.22;;;0.20;;
28086;SDS011;15392;48.912;8.380;2023-04-24T03:08:30;0.10;;;0.10;;
28086;SDS011;15392;48.912;8.380;2023-04-24T03:11:00;0.10;;;0.10;;
28086;SDS011;15392;48.912;8.380;2023-04-24T03:13:26;0.20;;;0.20;;
28086;SDS011;15392;48.912;8.380;2023-04-24T03:15:52;0.10;;;0.10;;
28086;SDS011;15392;48.912;8.380;2023-04-24T03:18:19;0.10;;;0.10;;
28086;SDS011;15392;48.912;8.380;2023-04-24T03:20:45;0.10;;;0.10;;
28086;SDS011;15392;48.912;8.380;2023-04-24T03:23:11;0.10;;;0.10;;
28086;SDS011;15392;48.912;8.380;2023-04-24T03:25:37;0.10;;;0.10;;
28086;SDS011;15392;48.912;8.380;2023-04-24T03:28:03;0.15;;;0.15;;
28086;SDS011;15392;48.912;8.380;2023-04-24T03:30:28;0.25;;;0.10;;
28086;SDS011;15392;48.912;8.380;2023-04-24T03:32:54;0.20;;;0.20;;
28086;SDS011;15392;48.912;8.380;2023-04-24T03:35:20;0.13;;;0.13;;
28086;SDS011;15392;48.912;8.380;2023-04-24T03:37:47;0.10;;;0.10;;
28086;SDS011;15392;48.912;8.380;2023-04-24T03:40:12;0.10;;;0.10;;
28086;SDS011;15392;48.912;8.380;2023-04-24T03:42:38;0.20;;;0.20;;
28086;SDS011;15392;48.912;8.380;2023-04-24T03:45:04;0.10;;;0.10;;
28086;SDS011;15392;48.912;8.380;2023-04-24T03:47:31;0.13;;;0.13;;
28086;SDS011;15392;48.912;8.380;2023-04-24T03:49:56;0.10;;;0.10;;
28086;SDS011;15392;48.912;8.380;2023-04-24T03:52:22;0.13;;;0.13;;
28086;SDS011;15392;48.912;8.380;2023-04-24T03:54:48;0.15;;;0.15;;
28086;SDS011;15392;48.912;8.380;2023-04-24T03:57:14;0.10;;;0.10;;
28086;SDS011;15392;48.912;8.380;2023-04-24T03:59:39;0.10;;;0.10;;
28086;SDS011;15392;48.912;8.380;2023-04-24T04:02:05;0.20;;;0.20;;
28086;SDS011;15392;48.912;8.380;2023-04-24T04:04:31;0.15;;;0.15;;
28086;SDS011;15392;48.912;8.380;2023-04-24T04:06:56;0.20;;;0.20;;
28086;SDS011;15392;48.912;8.380;2023-04-24T04:09:26;0.17;;;0.17;;
28086;SDS011;15392;48.912;8.380;2023-04-24T04:11:55;0.10;;;0.10;;
28086;SDS011;15392;48.912;8.380;2023-04-24T04:14:21;0.10;;;0.10;;
28086;SDS011;15392;48.912;8.380;2023-04-24T04:16:48;0.10;;;0.10;;
28086;SDS011;15392;48.912;8.380;2023-04-24T04:19:14;0.20;;;0.20;;
28086;SDS011;15392;48.912;8.380;2023-04-24T04:21:39;0.20;;;0.20;;
28086;SDS011;15392;48.912;8.380;2023-04-24T04:24:06;0.20;;;0.20;;
28086;SDS011;15392;48.912;8.380;2023-04-24T04:26:32;0.10;;;0.10;;
28086;SDS011;15392;48.912;8.380;2023-04-24T04:28:58;0.20;;;0.15;;
28086;SDS011;15392;48.912;8.380;2023-04-24T04:31:28;0.05;;;0.05;;
28086;SDS011;15392;48.912;8.380;2023-04-24T04:33:55;0.20;;;0.20;;
28086;SDS011;15392;48.912;8.380;2023-04-24T04:36:21;0.20;;;0.20;;
28086;SDS011;15392;48.912;8.380;2023-04-24T04:38:46;0.70;;;0.70;;
28086;SDS011;15392;48.912;8.380;2023-04-24T04:41:12;0.60;;;0.50;;
28086;SDS011;15392;48.912;8.380;2023-04-24T04:43:38;0.60;;;0.60;;
28086;SDS011;15392;48.912;8.380;2023-04-24T04:46:04;0.75;;;0.75;;
28086;SDS011;15392;48.912;8.380;2023-04-24T04:48:31;0.50;;;0.50;;
28086;SDS011;15392;48.912;8.380;2023-04-24T04:50:57;0.57;;;0.57;;
28086;SDS011;15392;48.912;8.380;2023-04-24T04:53:23;0.50;;;0.50;;
28086;SDS011;15392;48.912;8.380;2023-04-24T04:55:49;0.80;;;0.80;;
28086;SDS011;15392;48.912;8.380;2023-04-24T04:58:15;0.45;;;0.45;;
28086;SDS011;15392;48.912;8.380;2023-04-24T05:00:40;0.68;;;0.68;;
28086;SDS011;15392;48.912;8.380;2023-04-24T05:03:06;0.50;;;0.50;;
28086;SDS011;15392;48.912;8.380;2023-04-24T05:05:32;0.32;;;0.32;;
28086;SDS011;15392;48.912;8.380;2023-04-24T05:07:58;0.32;;;0.32;;
28086;SDS011;15392;48.912;8.380;2023-04-24T05:10:23;0.30;;;0.30;;
28086;SDS011;15392;48.912;8.380;2023-04-24T05:12:49;0.30;;;0.30;;
28086;SDS011;15392;48.912;8.380;2023-04-24T05:15:15;0.20;;;0.20;;
28086;SDS011;15392;48.912;8.380;2023-04-24T05:17:41;0.20;;;0.20;;
28086;SDS011;15392;48.912;8.380;2023-04-24T05:20:07;0.30;;;0.30;;
28086;SDS011;15392;48.912;8.380;2023-04-24T05:22:34;0.95;;;0.30;;
28086;SDS011;15392;48.912;8.380;2023-04-24T05:25:00;0.20;;;0.20;;
28086;SDS011;15392;48.912;8.380;2023-04-24T05:27:29;0.20;;;0.20;;
28086;SDS011;15392;48.912;8.380;2023-04-24T05:29:54;0.20;;;0.20;;
28086;SDS011;15392;48.912;8.380;2023-04-24T05:32:20;0.30;;;0.30;;
28086;SDS011;15392;48.912;8.380;2023-04-24T05:34:46;0.30;;;0.30;;
28086;SDS011;15392;48.912;8.380;2023-04-24T05:37:12;0.30;;;0.30;;
28086;SDS011;15392;48.912;8.380;2023-04-24T05:39:38;0.30;;;0.30;;
28086;SDS011;15392;48.912;8.380;2023-04-24T05:42:04;0.20;;;0.20;;
28086;SDS011;15392;48.912;8.380;2023-04-24T05:44:31;0.40;;;0.40;;
28086;SDS011;15392;48.912;8.380;2023-04-24T05:46:56;0.35;;;0.35;;
28086;SDS011;15392;48.912;8.380;2023-04-24T05:49:22;0.28;;;0.28;;
28086;SDS011;15392;48.912;8.380;2023-04-24T05:51:49;0.40;;;0.40;;
28086;SDS011;15392;48.912;8.380;2023-04-24T05:54:15;0.30;;;0.30;;
28086;SDS011;15392;48.912;8.380;2023-04-24T05:56:41;0.25;;;0.25;;
28086;SDS011;15392;48.912;8.380;2023-04-24T05:59:07;0.20;;;0.20;;
28086;SDS011;15392;48.912;8.380;2023-04-24T06:01:34;0.40;;;0.40;;
28086;SDS011;15392;48.912;8.380;2023-04-24T06:04:01;0.32;;;0.32;;
28086;SDS011;15392;48.912;8.380;2023-04-24T06:06:28;0.35;;;0.35;;
28086;SDS011;15392;48.912;8.380;2023-04-24T06:08:54;0.30;;;0.30;;
28086;SDS011;15392;48.912;8.380;2023-04-24T06:11:20;0.30;;;0.30;;
28086;SDS011;15392;48.912;8.380;2023-04-24T06:13:46;0.30;;;0.30;;
28086;SDS011;15392;48.912;8.380;2023-04-24T06:16:12;0.32;;;0.32;;
28086;SDS011;15392;48.912;8.380;2023-04-24T06:18:38;0.38;;;0.35;;
28086;SDS011;15392;48.912;8.380;2023-04-24T06:21:03;0.40;;;0.40;;
28086;SDS011;15392;48.912;8.380;2023-04-24T06:23:30;0.38;;;0.38;;
28086;SDS011;15392;48.912;8.380;2023-04-24T06:25:57;0.80;;;0.80;;
28086;SDS011;15392;48.912;8.380;2023-04-24T06:28:24;1.02;;;1.02;;
28086;SDS011;15392;48.912;8.380;2023-04-24T06:30:50;1.50;;;1.40;;
28086;SDS011;15392;48.912;8.380;2023-04-24T06:33:16;6.40;;;5.65;;
28086;SDS011;15392;48.912;8.380;2023-04-24T06:35:43;6.50;;;5.95;;
28086;SDS011;15392;48.912;8.380;2023-04-24T06:38:08;3.25;;;3.05;;
28086;SDS011;15392;48.912;8.380;2023-04-24T06:40:34;2.08;;;1.77;;
28086;SDS011;15392;48.912;8.380;2023-04-24T06:43:00;1.00;;;1.00;;
28086;SDS011;15392;48.912;8.380;2023-04-24T06:45:28;0.80;;;0.80;;
28086;SDS011;15392;48.912;8.380;2023-04-24T06:47:54;0.70;;;0.60;;
28086;SDS011;15392;48.912;8.380;2023-04-24T06:50:21;0.50;;;0.50;;
28086;SDS011;15392;48.912;8.380;2023-04-24T06:52:47;0.38;;;0.38;;
28086;SDS011;15392;48.912;8.380;2023-04-24T06:55:13;0.55;;;0.55;;
28086;SDS011;15392;48.912;8.380;2023-04-24T06:57:40;0.50;;;0.50;;
28086;SDS011;15392;48.912;8.380;2023-04-24T07:00:06;0.30;;;0.30;;
28086;SDS011;15392;48.912;8.380;2023-04-24T07:02:34;0.40;;;0.40;;
28086;SDS011;15392;48.912;8.380;2023-04-24T07:05:04;0.30;;;0.30;;
28086;SDS011;15392;48.912;8.380;2023-04-24T07:07:31;0.30;;;0.30;;
28086;SDS011;15392;48.912;8.380;2023-04-24T07:09:57;0.55;;;0.55;;
28086;SDS011;15392;48.912;8.380;2023-04-24T07:12:24;0.43;;;0.43;;
28086;SDS011;15392;48.912;8.380;2023-04-24T07:14:51;0.30;;;0.30;;
28086;SDS011;15392;48.912;8.380;2023-04-24T07:17:18;0.40;;;0.40;;
28086;SDS011;15392;48.912;8.380;2023-04-24T07:19:44;0.50;;;0.50;;
28086;SDS011;15392;48.912;8.380;2023-04-24T07:22:10;0.45;;;0.45;;
28086;SDS011;15392;48.912;8.380;2023-04-24T07:24:43;0.40;;;0.40;;
28086;SDS011;15392;48.912;8.380;2023-04-24T07:27:13;0.60;;;0.60;;
28086;SDS011;15392;48.912;8.380;2023-04-24T07:29:40;0.35;;;0.35;;
28086;SDS011;15392;48.912;8.380;2023-04-24T07:32:06;0.40;;;0.40;;
28086;SDS011;15392;48.912;8.380;2023-04-24T07:34:33;0.40;;;0.40;;
28086;SDS011;15392;48.912;8.380;2023-04-24T07:37:01;0.40;;;0.40;;
28086;SDS011;15392;48.912;8.380;2023-04-24T07:39:30;0.25;;;0.25;;
28086;SDS011;15392;48.912;8.380;2023-04-24T07:41:56;0.40;;;0.40;;
28086;SDS011;15392;48.912;8.380;2023-04-24T07:44:24;0.45;;;0.45;;
28086;SDS011;15392;48.912;8.380;2023-04-24T07:46:50;0.50;;;0.50;;
28086;SDS011;15392;48.912;8.380;2023-04-24T07:49:16;0.40;;;0.40;;
28086;SDS011;15392;48.912;8.380;2023-04-24T07:51:41;0.30;;;0.30;;
28086;SDS011;15392;48.912;8.380;2023-04-24T07:54:07;0.32;;;0.32;;
28086;SDS011;15392;48.912;8.380;2023-04-24T07:56:33;0.47;;;0.47;;
28086;SDS011;15392;48.912;8.380;2023-04-24T07:58:59;0.30;;;0.30;;
28086;SDS011;15392;48.912;8.380;2023-04-24T08:01:27;0.40;;;0.40;;
28086;SDS011;15392;48.912;8.380;2023-04-24T08:03:53;1.23;;;0.30;;
28086;SDS011;15392;48.912;8.380;2023-04-24T08:06:18;0.20;;;0.20;;
28086;SDS011;15392;48.912;8.380;2023-04-24T08:08:44;0.55;;;0.32;;
28086;SDS011;15392;48.912;8.380;2023-04-24T08:11:11;0.57;;;0.57;;
28086;SDS011;15392;48.912;8.380;2023-04-24T08:13:37;0.43;;;0.43;;
28086;SDS011;15392;48.912;8.380;2023-04-24T08:16:05;0.40;;;0.40;;
28086;SDS011;15392;48.912;8.380;2023-04-24T08:18:31;0.40;;;0.40;;
28086;SDS011;15392;48.912;8.380;2023-04-24T08:20:56;0.52;;;0.52;;
28086;SDS011;15392;48.912;8.380;2023-04-24T08:23:26;0.50;;;0.50;;
28086;SDS011;15392;48.912;8.380;2023-04-24T08:25:52;0.40;;;0.40;;
28086;SDS011;15392;48.912;8.380;2023-04-24T08:28:18;0.22;;;0.20;;
28086;SDS011;15392;48.912;8.380;2023-04-24T08:30:45;0.28;;;0.28;;
28086;SDS011;15392;48.912;8.380;2023-04-24T08:33:19;0.50;;;0.30;;
28086;SDS011;15392;48.912;8.380;2023-04-24T08:35:48;0.20;;;0.20;;
28086;SDS011;15392;48.912;8.380;2023-04-24T08:38:14;0.20;;;0.20;;
28086;SDS011;15392;48.912;8.380;2023-04-24T08:40:42;0.30;;;0.30;;
28086;SDS011;15392;48.912;8.380;2023-04-24T08:43:10;0.20;;;0.20;;
28086;SDS011;15392;48.912;8.380;2023-04-24T08:45:38;0.30;;;0.30;;
28086;SDS011;15392;48.912;8.380;2023-04-24T08:48:04;0.28;;;0.28;;
28086;SDS011;15392;48.912;8.380;2023-04-24T08:50:31;0.40;;;0.40;;
28086;SDS011;15392;48.912;8.380;2023-04-24T08:53:04;0.30;;;0.30;;
28086;SDS011;15392;48.912;8.380;2023-04-24T08:55:32;0.40;;;0.40;;
28086;SDS011;15392;48.912;8.380;2023-04-24T08:57:59;0.30;;;0.30;;
28086;SDS011;15392;48.912;8.380;2023-04-24T09:00:26;0.63;;;0.22;;
28086;SDS011;15392;48.912;8.380;2023-04-24T09:02:54;0.40;;;0.40;;
28086;SDS011;15392;48.912;8.380;2023-04-24T09:05:21;0.50;;;0.30;;
28086;SDS011;15392;48.912;8.380;2023-04-24T09:07:55;0.30;;;0.30;;
28086;SDS011;15392;48.912;8.380;2023-04-24T09:10:28;0.30;;;0.30;;
28086;SDS011;15392;48.912;8.380;2023-04-24T09:12:56;0.40;;;0.40;;
28086;SDS011;15392;48.912;8.380;2023-04-24T09:15:24;0.20;;;0.20;;
28086;SDS011;15392;48.912;8.380;2023-04-24T09:17:51;0.50;;;0.50;;
28086;SDS011;15392;48.912;8.380;2023-04-24T09:20:19;0.57;;;0.40;;
28086;SDS011;15392;48.912;8.380;2023-04-24T09:22:53;0.50;;;0.50;;
28086;SDS011;15392;48.912;8.380;2023-04-24T09:25:25;0.70;;;0.50;;
28086;SDS011;15392;48.912;8.380;2023-04-24T09:28:02;2.17;;;1.70;;
28086;SDS011;15392;48.912;8.380;2023-04-24T09:30:30;1.00;;;0.93;;
28086;SDS011;15392;48.912;8.380;2023-04-24T09:33:15;0.60;;;0.60;;
28086;SDS011;15392;48.912;8.380;2023-04-24T09:35:53;0.40;;;0.40;;
28086;SDS011;15392;48.912;8.380;2023-04-24T09:38:19;0.40;;;0.40;;
28086;SDS011;15392;48.912;8.380;2023-04-24T09:41:03;0.43;;;0.43;;
28086;SDS011;15392;48.912;8.380;2023-04-24T09:43:32;0.60;;;0.60;;
28086;SDS011;15392;48.912;8.380;2023-04-24T09:45:59;1.20;;;1.10;;
28086;SDS011;15392;48.912;8.380;2023-04-24T09:48:31;11.15;;;6.75;;
28086;SDS011;15392;48.912;8.380;2023-04-24T09:51:02;3.78;;;3.42;;
28086;SDS011;15392;48.912;8.380;2023-04-24T09:53:35;1.52;;;1.42;;
28086;SDS011;15392;48.912;8.380;2023-04-24T09:56:02;0.70;;;0.70;;
28086;SDS011;15392;48.912;8.380;2023-04-24T09:58:34;0.50;;;0.50;;
28086;SDS011;15392;48.912;8.380;2023-04-24T10:01:01;0.30;;;0.30;;
28086;SDS011;15392;48.912;8.380;2023-04-24T10:03:32;0.50;;;0.50;;
28086;SDS011;15392;48.912;8.380;2023-04-24T10:06:03;0.35;;;0.35;;
28086;SDS011;15392;48.912;8.380;2023-04-24T10:08:40;0.20;;;0.20;;
28086;SDS011;15392;48.912;8.380;2023-04-24T10:11:06;0.40;;;0.35;;
28086;SDS011;15392;48.912;8.380;2023-04-24T10:13:33;0.30;;;0.30;;
28086;SDS011;15392;48.912;8.380;2023-04-24T10:16:00;0.30;;;0.30;;
28086;SDS011;15392;48.912;8.380;2023-04-24T10:18:25;0.40;;;0.40;;
28086;SDS011;15392;48.912;8.380;2023-04-24T10:20:52;0.40;;;0.30;;
28086;SDS011;15392;48.912;8.380;2023-04-24T10:23:19;0.50;;;0.50;;
28086;SDS011;15392;48.912;8.380;2023-04-24T10:25:45;0.40;;;0.40;;
28086;SDS011;15392;48.912;8.380;2023-04-24T10:28:12;0.40;;;0.40;;
28086;SDS011;15392;48.912;8.380;2023-04-24T10:30:38;0.30;;;0.30;;
28086;SDS011;15392;48.912;8.380;2023-04-24T10:33:08;0.68;;;0.50;;
28086;SDS011;15392;48.912;8.380;2023-04-24T10:35:34;0.30;;;0.30;;
28086;SDS011;15392;48.912;8.380;2023-04-24T10:38:14;0.30;;;0.20;;
28086;SDS011;15392;48.912;8.380;2023-04-24T10:40:49;0.30;;;0.30;;
28086;SDS011;15392;48.912;8.380;2023-04-24T10:43:16;0.43;;;0.22;;
28086;SDS011;15392;48.912;8.380;2023-04-24T10:45:42;0.35;;;0.35;;
28086;SDS011;15392;48.912;8.380;2023-04-24T10:48:29;0.43;;;0.43;;
28086;SDS011;15392;48.912;8.380;2023-04-24T10:50:57;0.45;;;0.45;;
28086;SDS011;15392;48.912;8.380;2023-04-24T10:53:27;0.40;;;0.40;;
28086;SDS011;15392;48.912;8.380;2023-04-24T10:56:05;0.55;;;0.55;;
28086;SDS011;15392;48.912;8.380;2023-04-24T10:58:42;0.60;;;0.60;;
28086;SDS011;15392;48.912;8.380;2023-04-24T11:01:27;1.25;;;1.25;;
28086;SDS011;15392;48.912;8.380;2023-04-24T11:03:59;1.10;;;1.10;;
28086;SDS011;15392;48.912;8.380;2023-04-24T11:06:31;0.70;;;0.70;;
28086;SDS011;15392;48.912;8.380;2023-04-24T11:09:04;1.95;;;1.85;;
28086;SDS011;15392;48.912;8.380;2023-04-24T11:11:38;1.70;;;1.60;;
28086;SDS011;15392;48.912;8.380;2023-04-24T11:14:10;0.80;;;0.80;;
28086;SDS011;15392;48.912;8.380;2023-04-24T11:19:39;0.95;;;0.95;;
28086;SDS011;15392;48.912;8.380;2023-04-24T11:22:44;0.50;;;0.50;;
28086;SDS011;15392;48.912;8.380;2023-04-24T11:25:13;0.73;;;0.73;;
28086;SDS011;15392;48.912;8.380;2023-04-24T11:27:44;0.57;;;0.57;;
28086;SDS011;15392;48.912;8.380;2023-04-24T11:30:12;0.50;;;0.50;;
28086;SDS011;15392;48.912;8.380;2023-04-24T11:32:52;0.50;;;0.50;;
28086;SDS011;15392;48.912;8.380;2023-04-24T11:35:22;0.70;;;0.70;;
28086;SDS011;15392;48.912;8.380;2023-04-24T11:37:53;0.60;;;0.60;;
28086;SDS011;15392;48.912;8.380;2023-04-24T11:40:20;0.90;;;0.90;;
28086;SDS011;15392;48.912;8.380;2023-04-24T11:42:51;0.60;;;0.60;;
28086;SDS011;15392;48.912;8.380;2023-04-24T11:47:52;0.47;;;0.47;;
28086;SDS011;15392;48.912;8.380;2023-04-24T11:50:22;0.40;;;0.40;;
28086;SDS011;15392;48.912;8.380;2023-04-24T11:52:54;0.52;;;0.52;;
28086;SDS011;15392;48.912;8.380;2023-04-24T11:57:53;0.50;;;0.50;;
28086;SDS011;15392;48.912;8.380;2023-04-24T12:00:27;0.40;;;0.40;;
28086;SDS011;15392;48.912;8.380;2023-04-24T12:03:03;0.60;;;0.60;;
28086;SDS011;15392;48.912;8.380;2023-04-24T12:05:30;0.73;;;0.73;;
28086;SDS011;15392;48.912;8.380;2023-04-24T12:07:57;0.70;;;0.70;;
28086;SDS011;15392;48.912;8.380;2023-04-24T12:10:25;0.60;;;0.60;;
28086;SDS011;15392;48.912;8.380;2023-04-24T12:12:53;0.93;;;0.60;;
28086;SDS011;15392;48.912;8.380;2023-04-24T12:15:21;0.52;;;0.52;;
28086;SDS011;15392;48.912;8.380;2023-04-24T12:17:50;0.50;;;0.50;;
28086;SDS011;15392;48.912;8.380;2023-04-24T12:20:17;0.75;;;0.55;;
28086;SDS011;15392;48.912;8.380;2023-04-24T12:22:53;0.50;;;0.50;;
28086;SDS011;15392;48.912;8.380;2023-04-24T12:25:22;0.50;;;0.50;;
28086;SDS011;15392;48.912;8.380;2023-04-24T12:27:55;0.43;;;0.43;;
28086;SDS011;15392;48.912;8.380;2023-04-24T12:30:41;0.47;;;0.47;;
28086;SDS011;15392;48.912;8.380;2023-04-24T12:33:19;0.75;;;0.75;;
28086;SDS011;15392;48.912;8.380;2023-04-24T12:35:47;0.90;;;0.90;;
28086;SDS011;15392;48.912;8.380;2023-04-24T12:38:22;0.75;;;0.75;;
28086;SDS011;15392;48.912;8.380;2023-04-24T12:41:04;0.80;;;0.80;;
28086;SDS011;15392;48.912;8.380;2023-04-24T12:43:32;0.50;;;0.50;;
28086;SDS011;15392;48.912;8.380;2023-04-24T12:45:59;0.32;;;0.32;;
28086;SDS011;15392;48.912;8.380;2023-04-24T12:48:28;0.40;;;0.40;;
28086;SDS011;15392;48.912;8.380;2023-04-24T12:53:30;0.50;;;0.50;;
28086;SDS011;15392;48.912;8.380;2023-04-24T13:00:08;0.52;;;0.52;;
28086;SDS011;15392;48.912;8.380;2023-04-24T13:02:36;0.60;;;0.60;;
28086;SDS011;15392;48.912;8.380;2023-04-24T13:05:02;0.52;;;0.50;;
28086;SDS011;15392;48.912;8.380;2023-04-24T13:07:29;0.70;;;0.70;;
28086;SDS011;15392;48.912;8.380;2023-04-24T13:09:56;0.65;;;0.65;;
28086;SDS011;15392;48.912;8.380;2023-04-24T13:12:23;0.80;;;0.73;;
28086;SDS011;15392;48.912;8.380;2023-04-24T13:14:49;0.57;;;0.57;;
28086;SDS011;15392;48.912;8.380;2023-04-24T13:17:15;0.60;;;0.60;;
28086;SDS011;15392;48.912;8.380;2023-04-24T13:19:42;0.70;;;0.70;;
28086;SDS011;15392;48.912;8.380;2023-04-24T13:22:09;0.60;;;0.60;;
28086;SDS011;15392;48.912;8.380;2023-04-24T13:24:38;0.50;;;0.50;;
28086;SDS011;15392;48.912;8.380;2023-04-24T13:27:07;0.70;;;0.70;;
28086;SDS011;15392;48.912;8.380;2023-04-24T13:29:34;0.80;;;0.80;;
28086;SDS011;15392;48.912;8.380;2023-04-24T13:32:00;0.45;;;0.45;;
28086;SDS011;15392;48.912;8.380;2023-04-24T13:34:26;0.57;;;0.57;;
28086;SDS011;15392;48.912;8.380;2023-04-24T13:36:53;1.65;;;0.60;;
28086;SDS011;15392;48.912;8.380;2023-04-24T13:39:21;0.30;;;0.30;;
28086;SDS011;15392;48.912;8.380;2023-04-24T13:41:48;0.50;;;0.50;;
28086;SDS011;15392;48.912;8.380;2023-04-24T13:44:16;0.40;;;0.40;;
28086;SDS011;15392;48.912;8.380;2023-04-24T13:46:44;0.40;;;0.40;;
28086;SDS011;15392;48.912;8.380;2023-04-24T13:49:13;0.40;;;0.40;;
28086;SDS011;15392;48.912;8.380;2023-04-24T13:51:40;0.40;;;0.40;;
28086;SDS011;15392;48.912;8.380;2023-04-24T13:54:07;0.40;;;0.40;;
28086;SDS011;15392;48.912;8.380;2023-04-24T13:56:33;0.30;;;0.30;;
28086;SDS011;15392;48.912;8.380;2023-04-24T13:59:00;0.50;;;0.50;;
28086;SDS011;15392;48.912;8.380;2023-04-24T14:01:27;0.28;;;0.28;;
28086;SDS011;15392;48.912;8.380;2023-04-24T14:03:53;0.40;;;0.40;;
28086;SDS011;15392;48.912;8.380;2023-04-24T14:06:21;0.30;;;0.30;;
28086;SDS011;15392;48.912;8.380;2023-04-24T14:08:48;0.50;;;0.50;;
28086;SDS011;15392;48.912;8.380;2023-04-24T14:11:15;0.50;;;0.50;;
28086;SDS011;15392;48.912;8.380;2023-04-24T14:13:42;0.50;;;0.50;;
28086;SDS011;15392;48.912;8.380;2023-04-24T14:16:10;0.50;;;0.50;;
28086;SDS011;15392;48.912;8.380;2023-04-24T14:18:36;0.32;;;0.32;;
28086;SDS011;15392;48.912;8.380;2023-04-24T14:21:03;0.50;;;0.50;;
28086;SDS011;15392;48.912;8.380;2023-04-24T14:23:30;0.57;;;0.57;;
28086;SDS011;15392;48.912;8.380;2023-04-24T14:25:59;0.22;;;0.22;;
28086;SDS011;15392;48.912;8.380;2023-04-24T14:28:25;0.30;;;0.30;;
28086;SDS011;15392;48.912;8.380;2023-04-24T14:30:51;0.20;;;0.20;;
28086;SDS011;15392;48.912;8.380;2023-04-24T14:33:18;0.20;;;0.20;;
28086;SDS011;15392;48.912;8.380;2023-04-24T14:35:44;0.30;;;0.30;;
28086;SDS011;15392;48.912;8.380;2023-04-24T14:38:10;0.20;;;0.20;;
28086;SDS011;15392;48.912;8.380;2023-04-24T14:40:37;0.40;;;0.40;;
28086;SDS011;15392;48.912;8.380;2023-04-24T14:43:04;0.32;;;0.32;;
28086;SDS011;15392;48.912;8.380;2023-04-24T14:45:29;1.23;;;0.30;;
28086;SDS011;15392;48.912;8.380;2023-04-24T14:47:55;0.40;;;0.40;;
28086;SDS011;15392;48.912;8.380;2023-04-24T14:50:24;0.30;;;0.30;;
28086;SDS011;15392;48.912;8.380;2023-04-24T14:52:53;0.40;;;0.40;;
28086;SDS011;15392;48.912;8.380;2023-04-24T14:55:22;0.28;;;0.28;;
28086;SDS011;15392;48.912;8.380;2023-04-24T14:57:49;0.40;;;0.40;;
28086;SDS011;15392;48.912;8.380;2023-04-24T15:00:15;0.30;;;0.30;;
28086;SDS011;15392;48.912;8.380;2023-04-24T15:02:42;0.35;;;0.35;;
28086;SDS011;15392;48.912;8.380;2023-04-24T15:05:09;0.40;;;0.40;;